createdAt,value
2022-09-12T00:07:50.099Z,11.07
2022-09-12T00:17:51.777Z,11.77
2022-09-12T00:27:53.683Z,11.30
2022-09-12T00:37:55.681Z,9.77
2022-09-12T00:48:03.768Z,11.43
2022-09-12T00:58:13.715Z,12.38
2022-09-12T01:08:16.949Z,10.33
2022-09-12T01:18:36.146Z,10.93
2022-09-12T01:29:02.339Z,10.33
2022-09-12T01:39:09.568Z,10.33
2022-09-12T01:49:25.556Z,9.83
2022-09-12T01:59:43.467Z,10.90
2022-09-12T02:09:57.086Z,11.40
2022-09-12T02:20:06.788Z,10.63
2022-09-12T02:30:10.083Z,10.67
2022-09-12T02:40:13.819Z,10.07
2022-09-12T02:50:16.055Z,11.10
2022-09-12T03:00:17.947Z,10.43
2022-09-12T03:10:37.602Z,9.33
2022-09-12T03:20:49.820Z,10.43
2022-09-12T03:30:53.519Z,11.90
2022-09-12T03:40:55.411Z,10.67
2022-09-12T03:51:00.482Z,11.87
2022-09-12T04:01:13.571Z,10.33
2022-09-12T04:11:16.185Z,11.33
2022-09-12T04:21:20.227Z,11.53
2022-09-12T04:31:23.581Z,11.23
2022-09-12T04:41:28.617Z,11.27
2022-09-12T04:51:35.899Z,10.90
2022-09-12T05:01:37.640Z,11.73
2022-09-12T05:12:03.297Z,10.67
2022-09-12T05:22:05.022Z,11.43
2022-09-12T05:32:06.858Z,11.10
2022-09-12T05:42:09.224Z,12.47
2022-09-12T05:52:11.030Z,11.73
2022-09-12T06:02:12.976Z,13.03
2022-09-12T06:12:14.909Z,13.47
2022-09-12T06:22:18.585Z,15.03
2022-09-12T06:32:20.640Z,16.30
2022-09-12T06:42:22.500Z,13.50
2022-09-12T06:52:31.305Z,14.00
2022-09-12T07:02:33.027Z,14.07
2022-09-12T07:12:34.835Z,15.80
2022-09-12T07:22:36.481Z,15.00
2022-09-12T07:32:38.460Z,11.57
2022-09-12T07:42:40.183Z,10.27
2022-09-12T07:52:41.911Z,10.70
2022-09-12T08:02:43.755Z,9.83
2022-09-12T08:12:45.362Z,9.87
2022-09-12T08:22:47.101Z,7.97
2022-09-12T08:32:48.855Z,7.37
2022-09-12T08:43:10.316Z,6.47
2022-09-12T08:53:21.201Z,5.97
2022-09-12T09:04:04.999Z,5.00
2022-09-12T09:14:49.083Z,3.97
2022-09-12T09:25:02.662Z,4.75
2022-09-12T09:35:36.313Z,3.78
2022-09-12T09:45:43.426Z,4.30
2022-09-12T09:55:49.155Z,3.10
2022-09-12T10:05:53.528Z,3.85
2022-09-12T10:16:02.241Z,2.72
2022-09-12T10:26:10.979Z,2.75
2022-09-12T10:36:13.603Z,2.50
2022-09-12T10:46:15.707Z,2.58
2022-09-12T10:56:23.017Z,2.15
2022-09-12T11:06:37.049Z,1.90
2022-09-12T11:17:05.168Z,2.15
2022-09-12T11:27:18.939Z,2.20
2022-09-12T11:37:36.103Z,2.05
2022-09-12T11:47:38.569Z,1.88
2022-09-12T11:57:48.224Z,1.30
2022-09-12T12:07:57.673Z,1.25
2022-09-12T12:18:02.515Z,1.60
2022-09-12T12:28:06.577Z,1.30
2022-09-12T12:38:26.665Z,1.60
2022-09-12T12:48:31.957Z,1.80
2022-09-12T12:58:37.574Z,1.90
2022-09-12T13:08:54.036Z,1.90
2022-09-12T13:18:57.914Z,1.55
2022-09-12T13:29:20.413Z,1.40
2022-09-12T13:39:29.208Z,1.67
2022-09-12T13:49:37.323Z,1.40
2022-09-12T13:59:40.413Z,1.73
2022-09-12T14:09:47.138Z,1.80
2022-09-12T14:19:49.383Z,1.30
2022-09-12T14:29:56.702Z,1.80
2022-09-12T14:39:58.904Z,1.50
2022-09-12T14:50:02.220Z,1.45
2022-09-12T15:00:12.776Z,1.20
2022-09-12T15:10:22.973Z,1.17
2022-09-12T15:20:25.031Z,1.10
2022-09-12T15:30:26.612Z,1.02
2022-09-12T15:40:28.231Z,1.05
2022-09-12T15:50:30.610Z,0.70
2022-09-12T16:00:32.376Z,0.70
2022-09-12T16:10:35.479Z,0.70
2022-09-12T16:20:40.132Z,0.40
2022-09-12T16:30:44.242Z,0.60
2022-09-12T16:40:45.757Z,0.63
2022-09-12T16:50:56.559Z,0.70
2022-09-12T17:01:07.561Z,0.70
2022-09-12T17:11:15.797Z,0.68
2022-09-12T17:21:18.334Z,0.70
2022-09-12T17:31:20.611Z,0.80
2022-09-12T17:41:29.974Z,0.80
2022-09-12T17:51:33.151Z,0.80
2022-09-12T18:01:53.915Z,0.90
2022-09-12T18:11:58.884Z,0.60
2022-09-12T18:22:01.618Z,0.70
2022-09-12T18:32:06.267Z,0.80
2022-09-12T18:42:12.497Z,0.82
2022-09-12T18:52:19.065Z,0.75
2022-09-12T19:02:21.035Z,1.00
2022-09-12T19:12:23.283Z,1.00
2022-09-12T19:22:24.981Z,1.13
2022-09-12T19:32:27.914Z,1.10
2022-09-12T19:42:29.818Z,1.00
2022-09-12T19:52:31.759Z,1.30
2022-09-12T20:02:33.804Z,1.30
2022-09-12T20:12:35.951Z,1.20
2022-09-12T20:22:40.151Z,1.10
2022-09-12T20:32:44.562Z,1.15
2022-09-12T20:42:46.549Z,1.17
2022-09-12T20:52:48.200Z,1.20
2022-09-12T21:02:51.480Z,1.88
2022-09-12T21:12:53.904Z,3.13
2022-09-12T21:22:55.697Z,1.50
2022-09-12T21:32:57.543Z,1.53
2022-09-12T21:42:59.218Z,1.10
2022-09-12T21:53:00.939Z,1.20
2022-09-12T22:03:04.877Z,1.93
2022-09-12T22:13:06.726Z,1.40
2022-09-12T22:23:31.211Z,1.40
2022-09-12T22:33:32.832Z,1.50
2022-09-12T22:43:35.643Z,0.93
2022-09-12T22:53:37.579Z,1.17
2022-09-12T23:03:40.013Z,0.93
2022-09-12T23:13:44.559Z,1.10
2022-09-12T23:23:46.599Z,1.53
2022-09-12T23:33:49.783Z,1.03
2022-09-12T23:43:51.765Z,1.30
2022-09-12T23:53:53.557Z,1.53
